sensor_id;sensor_type;location;lat;lon;timestamp;temperature;humidity
53264;DHT22;39153;52.680;6.172;2023-06-14T00:01:45;19.70;71.70
53264;DHT22;39153;52.680;6.172;2023-06-14T00:04:14;19.60;71.70
53264;DHT22;39153;52.680;6.172;2023-06-14T00:06:44;19.50;71.80
53264;DHT22;39153;52.680;6.172;2023-06-14T00:09:11;19.50;71.90
53264;DHT22;39153;52.680;6.172;2023-06-14T00:11:43;19.40;71.80
53264;DHT22;39153;52.680;6.172;2023-06-14T00:14:08;19.40;72.00
53264;DHT22;39153;52.680;6.172;2023-06-14T00:16:35;19.30;72.30
53264;DHT22;39153;52.680;6.172;2023-06-14T00:19:03;19.30;72.50
53264;DHT22;39153;52.680;6.172;2023-06-14T00:21:30;19.20;72.80
53264;DHT22;39153;52.680;6.172;2023-06-14T00:23:57;19.20;72.40
53264;DHT22;39153;52.680;6.172;2023-06-14T00:26:23;19.20;72.30
53264;DHT22;39153;52.680;6.172;2023-06-14T00:28:49;19.10;72.40
53264;DHT22;39153;52.680;6.172;2023-06-14T00:31:14;19.10;72.60
53264;DHT22;39153;52.680;6.172;2023-06-14T00:33:40;19.00;72.60
53264;DHT22;39153;52.680;6.172;2023-06-14T00:36:06;19.00;72.60
53264;DHT22;39153;52.680;6.172;2023-06-14T00:38:31;18.90;72.60
53264;DHT22;39153;52.680;6.172;2023-06-14T00:40:57;18.80;73.00
53264;DHT22;39153;52.680;6.172;2023-06-14T00:43:23;18.80;73.20
53264;DHT22;39153;52.680;6.172;2023-06-14T00:45:48;18.80;73.40
53264;DHT22;39153;52.680;6.172;2023-06-14T00:48:15;18.70;73.60
53264;DHT22;39153;52.680;6.172;2023-06-14T00:50:41;18.60;73.60
53264;DHT22;39153;52.680;6.172;2023-06-14T00:53:07;18.60;73.70
53264;DHT22;39153;52.680;6.172;2023-06-14T00:55:33;18.50;73.60
53264;DHT22;39153;52.680;6.172;2023-06-14T00:57:59;18.50;73.70
53264;DHT22;39153;52.680;6.172;2023-06-14T01:00:25;18.40;73.90
53264;DHT22;39153;52.680;6.172;2023-06-14T01:02:51;18.30;74.00
53264;DHT22;39153;52.680;6.172;2023-06-14T01:05:17;18.20;74.20
53264;DHT22;39153;52.680;6.172;2023-06-14T01:08:42;18.20;74.40
53264;DHT22;39153;52.680;6.172;2023-06-14T01:11:02;18.10;74.80
53264;DHT22;39153;52.680;6.172;2023-06-14T01:13:34;18.00;75.00
53264;DHT22;39153;52.680;6.172;2023-06-14T01:16:01;18.00;75.00
53264;DHT22;39153;52.680;6.172;2023-06-14T01:18:30;18.00;75.00
53264;DHT22;39153;52.680;6.172;2023-06-14T01:20:57;17.90;75.30
53264;DHT22;39153;52.680;6.172;2023-06-14T01:23:23;17.90;75.40
53264;DHT22;39153;52.680;6.172;2023-06-14T01:25:50;17.80;75.70
53264;DHT22;39153;52.680;6.172;2023-06-14T01:28:20;17.70;75.80
53264;DHT22;39153;52.680;6.172;2023-06-14T01:30:51;17.60;76.40
53264;DHT22;39153;52.680;6.172;2023-06-14T01:33:23;17.60;76.80
53264;DHT22;39153;52.680;6.172;2023-06-14T01:35:51;17.60;76.80
53264;DHT22;39153;52.680;6.172;2023-06-14T01:38:20;17.60;77.10
53264;DHT22;39153;52.680;6.172;2023-06-14T01:40:48;17.50;77.00
53264;DHT22;39153;52.680;6.172;2023-06-14T01:43:15;17.50;77.10
53264;DHT22;39153;52.680;6.172;2023-06-14T01:45:46;17.40;77.30
53264;DHT22;39153;52.680;6.172;2023-06-14T01:48:13;17.40;77.80
53264;DHT22;39153;52.680;6.172;2023-06-14T01:50:39;17.30;77.80
53264;DHT22;39153;52.680;6.172;2023-06-14T01:53:09;17.30;77.80
53264;DHT22;39153;52.680;6.172;2023-06-14T01:55:35;17.30;78.00
53264;DHT22;39153;52.680;6.172;2023-06-14T01:58:03;17.30;78.10
53264;DHT22;39153;52.680;6.172;2023-06-14T02:00:29;17.20;78.30
53264;DHT22;39153;52.680;6.172;2023-06-14T02:02:55;17.20;78.70
53264;DHT22;39153;52.680;6.172;2023-06-14T02:05:21;17.20;78.80
53264;DHT22;39153;52.680;6.172;2023-06-14T02:07:47;17.20;78.90
53264;DHT22;39153;52.680;6.172;2023-06-14T02:10:13;17.10;78.90
53264;DHT22;39153;52.680;6.172;2023-06-14T02:12:40;17.00;79.20
53264;DHT22;39153;52.680;6.172;2023-06-14T02:15:06;17.00;79.40
53264;DHT22;39153;52.680;6.172;2023-06-14T02:17:32;16.90;80.20
53264;DHT22;39153;52.680;6.172;2023-06-14T02:19:59;16.90;80.00
53264;DHT22;39153;52.680;6.172;2023-06-14T02:22:25;16.80;80.00
53264;DHT22;39153;52.680;6.172;2023-06-14T02:24:50;16.80;80.30
53264;DHT22;39153;52.680;6.172;2023-06-14T02:27:16;16.80;80.40
53264;DHT22;39153;52.680;6.172;2023-06-14T02:29:42;16.70;80.70
53264;DHT22;39153;52.680;6.172;2023-06-14T02:32:08;16.70;81.00
53264;DHT22;39153;52.680;6.172;2023-06-14T02:34:34;16.70;81.20
53264;DHT22;39153;52.680;6.172;2023-06-14T02:37:01;16.60;81.40
53264;DHT22;39153;52.680;6.172;2023-06-14T02:39:28;16.60;81.80
53264;DHT22;39153;52.680;6.172;2023-06-14T02:41:54;16.50;81.80
53264;DHT22;39153;52.680;6.172;2023-06-14T02:44:24;16.50;82.10
53264;DHT22;39153;52.680;6.172;2023-06-14T02:46:51;16.50;82.40
53264;DHT22;39153;52.680;6.172;2023-06-14T02:49:16;16.40;82.60
53264;DHT22;39153;52.680;6.172;2023-06-14T02:51:42;16.40;82.80
53264;DHT22;39153;52.680;6.172;2023-06-14T02:54:08;16.40;82.90
53264;DHT22;39153;52.680;6.172;2023-06-14T02:56:33;16.30;83.20
53264;DHT22;39153;52.680;6.172;2023-06-14T02:58:59;16.30;83.30
53264;DHT22;39153;52.680;6.172;2023-06-14T03:01:28;16.30;83.50
53264;DHT22;39153;52.680;6.172;2023-06-14T03:04:02;16.30;83.70
53264;DHT22;39153;52.680;6.172;2023-06-14T03:06:29;16.30;84.00
53264;DHT22;39153;52.680;6.172;2023-06-14T03:08:59;16.30;84.20
53264;DHT22;39153;52.680;6.172;2023-06-14T03:11:26;16.30;84.50
53264;DHT22;39153;52.680;6.172;2023-06-14T03:13:53;16.30;84.60
53264;DHT22;39153;52.680;6.172;2023-06-14T03:16:19;16.20;84.90
53264;DHT22;39153;52.680;6.172;2023-06-14T03:18:45;16.20;84.90
53264;DHT22;39153;52.680;6.172;2023-06-14T03:21:11;16.20;85.00
53264;DHT22;39153;52.680;6.172;2023-06-14T03:23:37;16.20;85.30
53264;DHT22;39153;52.680;6.172;2023-06-14T03:26:02;16.20;85.50
53264;DHT22;39153;52.680;6.172;2023-06-14T03:28:28;16.10;85.80
53264;DHT22;39153;52.680;6.172;2023-06-14T03:30:54;16.20;86.00
53264;DHT22;39153;52.680;6.172;2023-06-14T03:33:20;16.10;86.10
53264;DHT22;39153;52.680;6.172;2023-06-14T03:35:46;16.10;86.10
53264;DHT22;39153;52.680;6.172;2023-06-14T03:38:12;16.10;86.50
53264;DHT22;39153;52.680;6.172;2023-06-14T03:40:38;16.10;86.50
53264;DHT22;39153;52.680;6.172;2023-06-14T03:43:03;16.00;86.70
53264;DHT22;39153;52.680;6.172;2023-06-14T03:45:29;16.00;87.00
53264;DHT22;39153;52.680;6.172;2023-06-14T03:47:55;16.00;87.30
53264;DHT22;39153;52.680;6.172;2023-06-14T03:50:21;16.00;87.40
53264;DHT22;39153;52.680;6.172;2023-06-14T03:52:48;16.00;87.60
53264;DHT22;39153;52.680;6.172;2023-06-14T03:55:14;16.00;87.60
53264;DHT22;39153;52.680;6.172;2023-06-14T03:57:41;16.00;87.90
53264;DHT22;39153;52.680;6.172;2023-06-14T04:00:09;16.00;88.00
53264;DHT22;39153;52.680;6.172;2023-06-14T04:02:35;16.00;88.10
53264;DHT22;39153;52.680;6.172;2023-06-14T04:05:02;16.00;88.00
53264;DHT22;39153;52.680;6.172;2023-06-14T04:07:28;16.00;88.30
53264;DHT22;39153;52.680;6.172;2023-06-14T04:09:55;16.00;88.40
53264;DHT22;39153;52.680;6.172;2023-06-14T04:12:21;16.00;88.50
53264;DHT22;39153;52.680;6.172;2023-06-14T04:14:46;16.00;88.60
53264;DHT22;39153;52.680;6.172;2023-06-14T04:17:12;16.00;88.80
53264;DHT22;39153;52.680;6.172;2023-06-14T04:19:38;16.00;88.90
53264;DHT22;39153;52.680;6.172;2023-06-14T04:22:03;16.10;89.10
53264;DHT22;39153;52.680;6.172;2023-06-14T04:24:29;16.10;89.10
53264;DHT22;39153;52.680;6.172;2023-06-14T04:26:58;16.10;89.30
53264;DHT22;39153;52.680;6.172;2023-06-14T04:29:24;16.10;89.40
53264;DHT22;39153;52.680;6.172;2023-06-14T04:31:54;16.10;89.40
53264;DHT22;39153;52.680;6.172;2023-06-14T04:34:20;16.10;89.50
53264;DHT22;39153;52.680;6.172;2023-06-14T04:36:47;16.20;89.50
53264;DHT22;39153;52.680;6.172;2023-06-14T04:39:22;16.10;89.70
53264;DHT22;39153;52.680;6.172;2023-06-14T04:41:48;16.20;89.80
53264;DHT22;39153;52.680;6.172;2023-06-14T04:44:19;16.20;89.90
53264;DHT22;39153;52.680;6.172;2023-06-14T04:46:45;16.20;89.90
53264;DHT22;39153;52.680;6.172;2023-06-14T04:49:20;16.20;90.00
53264;DHT22;39153;52.680;6.172;2023-06-14T04:51:46;16.30;90.10
53264;DHT22;39153;52.680;6.172;2023-06-14T04:54:12;16.30;90.10
53264;DHT22;39153;52.680;6.172;2023-06-14T04:56:43;16.30;90.10
53264;DHT22;39153;52.680;6.172;2023-06-14T04:59:10;16.30;90.20
53264;DHT22;39153;52.680;6.172;2023-06-14T05:01:41;16.40;90.20
53264;DHT22;39153;52.680;6.172;2023-06-14T05:04:06;16.40;90.20
53264;DHT22;39153;52.680;6.172;2023-06-14T05:06:32;16.40;90.20
53264;DHT22;39153;52.680;6.172;2023-06-14T05:08:58;16.40;90.20
53264;DHT22;39153;52.680;6.172;2023-06-14T05:11:24;16.50;90.30
53264;DHT22;39153;52.680;6.172;2023-06-14T05:13:50;16.50;90.20
53264;DHT22;39153;52.680;6.172;2023-06-14T05:16:16;16.50;90.30
53264;DHT22;39153;52.680;6.172;2023-06-14T05:18:45;16.60;90.50
53264;DHT22;39153;52.680;6.172;2023-06-14T05:21:11;16.70;90.30
53264;DHT22;39153;52.680;6.172;2023-06-14T05:23:37;16.70;90.30
53264;DHT22;39153;52.680;6.172;2023-06-14T05:26:02;16.70;90.30
53264;DHT22;39153;52.680;6.172;2023-06-14T05:28:30;16.80;90.30
53264;DHT22;39153;52.680;6.172;2023-06-14T05:30:56;16.80;90.20
53264;DHT22;39153;52.680;6.172;2023-06-14T05:33:22;16.90;90.20
53264;DHT22;39153;52.680;6.172;2023-06-14T05:35:47;16.90;90.20
53264;DHT22;39153;52.680;6.172;2023-06-14T05:38:13;17.00;90.20
53264;DHT22;39153;52.680;6.172;2023-06-14T05:40:39;17.10;90.10
53264;DHT22;39153;52.680;6.172;2023-06-14T05:43:04;17.10;90.10
53264;DHT22;39153;52.680;6.172;2023-06-14T05:45:30;17.20;90.00
53264;DHT22;39153;52.680;6.172;2023-06-14T05:47:56;17.20;89.90
53264;DHT22;39153;52.680;6.172;2023-06-14T05:50:21;17.30;89.60
53264;DHT22;39153;52.680;6.172;2023-06-14T05:52:47;17.30;90.00
53264;DHT22;39153;52.680;6.172;2023-06-14T05:55:13;17.40;89.60
53264;DHT22;39153;52.680;6.172;2023-06-14T05:57:38;17.40;89.50
53264;DHT22;39153;52.680;6.172;2023-06-14T06:00:05;17.50;89.10
53264;DHT22;39153;52.680;6.172;2023-06-14T06:02:36;17.60;89.00
53264;DHT22;39153;52.680;6.172;2023-06-14T06:05:01;17.60;88.90
53264;DHT22;39153;52.680;6.172;2023-06-14T06:07:27;17.70;88.90
53264;DHT22;39153;52.680;6.172;2023-06-14T06:09:53;17.70;88.70
53264;DHT22;39153;52.680;6.172;2023-06-14T06:12:19;17.80;88.70
53264;DHT22;39153;52.680;6.172;2023-06-14T06:14:45;17.90;88.40
53264;DHT22;39153;52.680;6.172;2023-06-14T06:17:10;17.90;87.80
53264;DHT22;39153;52.680;6.172;2023-06-14T06:19:36;18.00;87.60
53264;DHT22;39153;52.680;6.172;2023-06-14T06:22:02;18.00;87.70
53264;DHT22;39153;52.680;6.172;2023-06-14T06:24:30;18.10;87.90
53264;DHT22;39153;52.680;6.172;2023-06-14T06:26:55;18.20;87.40
53264;DHT22;39153;52.680;6.172;2023-06-14T06:29:21;18.30;87.10
53264;DHT22;39153;52.680;6.172;2023-06-14T06:31:47;18.30;86.70
53264;DHT22;39153;52.680;6.172;2023-06-14T06:34:12;18.40;86.70
53264;DHT22;39153;52.680;6.172;2023-06-14T06:36:38;18.50;86.60
53264;DHT22;39153;52.680;6.172;2023-06-14T06:39:04;18.50;86.40
53264;DHT22;39153;52.680;6.172;2023-06-14T06:41:37;18.60;86.40
53264;DHT22;39153;52.680;6.172;2023-06-14T06:44:03;18.70;86.20
53264;DHT22;39153;52.680;6.172;2023-06-14T06:46:29;18.80;85.80
53264;DHT22;39153;52.680;6.172;2023-06-14T06:48:54;18.80;85.50
53264;DHT22;39153;52.680;6.172;2023-06-14T06:51:20;18.90;85.00
53264;DHT22;39153;52.680;6.172;2023-06-14T06:53:54;19.00;84.80
53264;DHT22;39153;52.680;6.172;2023-06-14T06:56:21;19.10;85.20
53264;DHT22;39153;52.680;6.172;2023-06-14T06:58:49;19.10;85.00
53264;DHT22;39153;52.680;6.172;2023-06-14T07:01:16;19.20;84.40
53264;DHT22;39153;52.680;6.172;2023-06-14T07:03:41;19.30;84.30
53264;DHT22;39153;52.680;6.172;2023-06-14T07:06:07;19.30;83.90
53264;DHT22;39153;52.680;6.172;2023-06-14T07:08:33;19.40;83.70
53264;DHT22;39153;52.680;6.172;2023-06-14T07:10:58;19.40;83.50
53264;DHT22;39153;52.680;6.172;2023-06-14T07:13:24;19.50;83.30
53264;DHT22;39153;52.680;6.172;2023-06-14T07:15:50;19.50;82.80
53264;DHT22;39153;52.680;6.172;2023-06-14T07:18:18;19.60;83.10
53264;DHT22;39153;52.680;6.172;2023-06-14T07:20:44;19.70;82.90
53264;DHT22;39153;52.680;6.172;2023-06-14T07:23:10;19.70;82.60
53264;DHT22;39153;52.680;6.172;2023-06-14T07:25:36;19.80;82.20
53264;DHT22;39153;52.680;6.172;2023-06-14T07:28:02;19.90;82.50
53264;DHT22;39153;52.680;6.172;2023-06-14T07:30:27;19.90;82.00
53264;DHT22;39153;52.680;6.172;2023-06-14T07:32:55;20.00;81.30
53264;DHT22;39153;52.680;6.172;2023-06-14T07:35:21;20.00;81.30
53264;DHT22;39153;52.680;6.172;2023-06-14T07:37:47;20.10;80.90
53264;DHT22;39153;52.680;6.172;2023-06-14T07:40:13;20.10;81.10
53264;DHT22;39153;52.680;6.172;2023-06-14T07:42:39;20.20;80.80
53264;DHT22;39153;52.680;6.172;2023-06-14T07:45:05;20.20;81.00
53264;DHT22;39153;52.680;6.172;2023-06-14T07:47:32;20.30;80.80
53264;DHT22;39153;52.680;6.172;2023-06-14T07:49:58;20.30;80.60
53264;DHT22;39153;52.680;6.172;2023-06-14T07:52:24;20.50;80.80
53264;DHT22;39153;52.680;6.172;2023-06-14T07:54:50;20.50;80.90
53264;DHT22;39153;52.680;6.172;2023-06-14T07:57:16;20.60;80.70
53264;DHT22;39153;52.680;6.172;2023-06-14T07:59:42;20.70;80.00
53264;DHT22;39153;52.680;6.172;2023-06-14T08:02:07;20.70;79.90
53264;DHT22;39153;52.680;6.172;2023-06-14T08:04:33;20.80;79.80
53264;DHT22;39153;52.680;6.172;2023-06-14T08:06:59;20.90;79.80
53264;DHT22;39153;52.680;6.172;2023-06-14T08:09:26;21.00;79.50
53264;DHT22;39153;52.680;6.172;2023-06-14T08:11:53;21.00;79.10
53264;DHT22;39153;52.680;6.172;2023-06-14T08:14:19;21.10;78.70
53264;DHT22;39153;52.680;6.172;2023-06-14T08:16:44;21.10;78.50
53264;DHT22;39153;52.680;6.172;2023-06-14T08:19:10;21.20;78.20
53264;DHT22;39153;52.680;6.172;2023-06-14T08:21:36;21.20;78.20
53264;DHT22;39153;52.680;6.172;2023-06-14T08:24:02;21.20;78.20
53264;DHT22;39153;52.680;6.172;2023-06-14T08:26:27;21.30;78.10
53264;DHT22;39153;52.680;6.172;2023-06-14T08:28:57;21.30;78.50
53264;DHT22;39153;52.680;6.172;2023-06-14T08:31:23;21.40;78.30
53264;DHT22;39153;52.680;6.172;2023-06-14T08:33:50;21.50;78.40
53264;DHT22;39153;52.680;6.172;2023-06-14T08:36:15;21.50;77.90
53264;DHT22;39153;52.680;6.172;2023-06-14T08:38:41;21.50;78.00
53264;DHT22;39153;52.680;6.172;2023-06-14T08:41:08;21.60;78.00
53264;DHT22;39153;52.680;6.172;2023-06-14T08:43:36;21.60;77.90
53264;DHT22;39153;52.680;6.172;2023-06-14T08:46:03;21.70;77.40
53264;DHT22;39153;52.680;6.172;2023-06-14T08:48:30;21.70;76.90
53264;DHT22;39153;52.680;6.172;2023-06-14T08:51:00;21.70;76.70
53264;DHT22;39153;52.680;6.172;2023-06-14T08:53:32;21.70;76.30
53264;DHT22;39153;52.680;6.172;2023-06-14T08:55:59;21.80;76.10
53264;DHT22;39153;52.680;6.172;2023-06-14T08:58:28;21.90;75.30
53264;DHT22;39153;52.680;6.172;2023-06-14T09:00:57;22.00;75.00
53264;DHT22;39153;52.680;6.172;2023-06-14T09:03:24;22.00;74.20
53264;DHT22;39153;52.680;6.172;2023-06-14T09:05:58;22.10;73.70
53264;DHT22;39153;52.680;6.172;2023-06-14T09:08:29;22.20;73.70
53264;DHT22;39153;52.680;6.172;2023-06-14T09:10:56;22.30;73.60
53264;DHT22;39153;52.680;6.172;2023-06-14T09:13:22;22.40;73.30
53264;DHT22;39153;52.680;6.172;2023-06-14T09:15:48;22.50;72.60
53264;DHT22;39153;52.680;6.172;2023-06-14T09:18:14;22.70;72.70
53264;DHT22;39153;52.680;6.172;2023-06-14T09:20:40;22.80;72.40
53264;DHT22;39153;52.680;6.172;2023-06-14T09:23:06;22.90;71.90
53264;DHT22;39153;52.680;6.172;2023-06-14T09:25:39;23.00;71.30
53264;DHT22;39153;52.680;6.172;2023-06-14T09:28:07;23.10;71.30
53264;DHT22;39153;52.680;6.172;2023-06-14T09:30:33;23.30;71.70
53264;DHT22;39153;52.680;6.172;2023-06-14T09:32:59;23.40;71.40
53264;DHT22;39153;52.680;6.172;2023-06-14T09:35:25;23.50;71.40
53264;DHT22;39153;52.680;6.172;2023-06-14T09:37:51;23.60;71.40
53264;DHT22;39153;52.680;6.172;2023-06-14T09:40:22;23.80;70.90
53264;DHT22;39153;52.680;6.172;2023-06-14T09:42:48;23.80;70.70
53264;DHT22;39153;52.680;6.172;2023-06-14T09:45:15;23.90;70.90
53264;DHT22;39153;52.680;6.172;2023-06-14T09:47:48;23.90;70.80
53264;DHT22;39153;52.680;6.172;2023-06-14T09:50:14;23.80;70.10
53264;DHT22;39153;52.680;6.172;2023-06-14T09:52:43;23.90;70.30
53264;DHT22;39153;52.680;6.172;2023-06-14T09:55:13;24.00;69.90
53264;DHT22;39153;52.680;6.172;2023-06-14T09:57:42;24.00;69.70
53264;DHT22;39153;52.680;6.172;2023-06-14T10:00:10;24.10;70.50
53264;DHT22;39153;52.680;6.172;2023-06-14T10:02:39;24.20;69.40
53264;DHT22;39153;52.680;6.172;2023-06-14T10:05:09;24.30;69.20
53264;DHT22;39153;52.680;6.172;2023-06-14T10:07:42;24.30;68.60
53264;DHT22;39153;52.680;6.172;2023-06-14T10:10:09;24.40;68.10
53264;DHT22;39153;52.680;6.172;2023-06-14T10:12:35;24.40;67.90
53264;DHT22;39153;52.680;6.172;2023-06-14T10:15:01;24.50;68.00
53264;DHT22;39153;52.680;6.172;2023-06-14T10:20:40;24.50;68.10
53264;DHT22;39153;52.680;6.172;2023-06-14T10:23:10;24.60;67.70
53264;DHT22;39153;52.680;6.172;2023-06-14T10:25:37;24.60;67.80
53264;DHT22;39153;52.680;6.172;2023-06-14T10:33:32;24.80;67.10
53264;DHT22;39153;52.680;6.172;2023-06-14T10:38:46;24.90;66.20
53264;DHT22;39153;52.680;6.172;2023-06-14T10:41:11;24.90;66.80
53264;DHT22;39153;52.680;6.172;2023-06-14T10:43:37;24.90;66.70
53264;DHT22;39153;52.680;6.172;2023-06-14T10:48:44;25.10;66.40
53264;DHT22;39153;52.680;6.172;2023-06-14T10:51:18;25.20;66.50
53264;DHT22;39153;52.680;6.172;2023-06-14T10:53:50;25.20;66.00
53264;DHT22;39153;52.680;6.172;2023-06-14T10:56:27;25.20;66.50
53264;DHT22;39153;52.680;6.172;2023-06-14T10:58:54;25.40;65.90
53264;DHT22;39153;52.680;6.172;2023-06-14T11:01:35;25.40;65.60
53264;DHT22;39153;52.680;6.172;2023-06-14T11:04:10;25.60;64.60
53264;DHT22;39153;52.680;6.172;2023-06-14T11:06:48;25.60;64.30
53264;DHT22;39153;52.680;6.172;2023-06-14T11:09:41;25.60;64.50
53264;DHT22;39153;52.680;6.172;2023-06-14T11:12:10;25.60;63.70
53264;DHT22;39153;52.680;6.172;2023-06-14T11:14:38;25.60;64.50
53264;DHT22;39153;52.680;6.172;2023-06-14T11:17:04;25.80;65.60
53264;DHT22;39153;52.680;6.172;2023-06-14T11:19:30;26.00;64.10
53264;DHT22;39153;52.680;6.172;2023-06-14T11:21:57;26.00;64.00
53264;DHT22;39153;52.680;6.172;2023-06-14T11:24:24;26.10;64.10
53264;DHT22;39153;52.680;6.172;2023-06-14T11:26:50;26.20;64.20
53264;DHT22;39153;52.680;6.172;2023-06-14T11:29:16;26.20;63.00
53264;DHT22;39153;52.680;6.172;2023-06-14T11:31:46;26.20;62.80
53264;DHT22;39153;52.680;6.172;2023-06-14T11:34:12;26.20;62.70
53264;DHT22;39153;52.680;6.172;2023-06-14T11:36:38;26.20;63.00
53264;DHT22;39153;52.680;6.172;2023-06-14T11:39:05;26.30;63.80
53264;DHT22;39153;52.680;6.172;2023-06-14T11:41:52;26.40;63.10
53264;DHT22;39153;52.680;6.172;2023-06-14T11:44:18;26.50;61.60
53264;DHT22;39153;52.680;6.172;2023-06-14T11:46:44;26.40;62.00
53264;DHT22;39153;52.680;6.172;2023-06-14T11:49:10;26.50;62.40
53264;DHT22;39153;52.680;6.172;2023-06-14T11:51:36;26.60;62.90
53264;DHT22;39153;52.680;6.172;2023-06-14T11:54:03;26.70;62.10
53264;DHT22;39153;52.680;6.172;2023-06-14T11:56:32;26.80;62.10
53264;DHT22;39153;52.680;6.172;2023-06-14T11:58:58;27.00;61.40
53264;DHT22;39153;52.680;6.172;2023-06-14T12:01:25;27.10;62.00
53264;DHT22;39153;52.680;6.172;2023-06-14T12:03:52;27.20;62.20
53264;DHT22;39153;52.680;6.172;2023-06-14T12:06:26;27.30;62.50
53264;DHT22;39153;52.680;6.172;2023-06-14T12:08:58;27.40;61.40
53264;DHT22;39153;52.680;6.172;2023-06-14T12:11:28;27.30;61.40
53264;DHT22;39153;52.680;6.172;2023-06-14T12:13:53;27.30;61.40
53264;DHT22;39153;52.680;6.172;2023-06-14T12:16:19;27.30;61.60
53264;DHT22;39153;52.680;6.172;2023-06-14T12:18:45;27.40;62.50
53264;DHT22;39153;52.680;6.172;2023-06-14T12:21:11;27.50;61.90
53264;DHT22;39153;52.680;6.172;2023-06-14T12:23:43;27.60;61.50
53264;DHT22;39153;52.680;6.172;2023-06-14T12:26:13;27.60;61.20
53264;DHT22;39153;52.680;6.172;2023-06-14T12:28:40;27.80;62.20
53264;DHT22;39153;52.680;6.172;2023-06-14T12:31:06;27.90;61.80
53264;DHT22;39153;52.680;6.172;2023-06-14T12:33:32;27.90;61.70
53264;DHT22;39153;52.680;6.172;2023-06-14T12:36:05;27.90;62.10
53264;DHT22;39153;52.680;6.172;2023-06-14T12:38:33;28.00;62.00
53264;DHT22;39153;52.680;6.172;2023-06-14T12:40:59;28.00;62.20
53264;DHT22;39153;52.680;6.172;2023-06-14T12:43:24;28.10;61.80
53264;DHT22;39153;52.680;6.172;2023-06-14T12:45:50;28.30;61.70
53264;DHT22;39153;52.680;6.172;2023-06-14T12:48:16;28.50;61.50
53264;DHT22;39153;52.680;6.172;2023-06-14T12:50:42;28.60;61.70
53264;DHT22;39153;52.680;6.172;2023-06-14T12:53:08;28.60;60.60
53264;DHT22;39153;52.680;6.172;2023-06-14T12:55:33;28.60;60.60
53264;DHT22;39153;52.680;6.172;2023-06-14T12:57:59;28.70;61.30
53264;DHT22;39153;52.680;6.172;2023-06-14T13:00:25;28.80;60.30
53264;DHT22;39153;52.680;6.172;2023-06-14T13:02:59;28.80;60.10
53264;DHT22;39153;52.680;6.172;2023-06-14T13:05:24;28.70;60.00
53264;DHT22;39153;52.680;6.172;2023-06-14T13:07:50;28.70;61.30
53264;DHT22;39153;52.680;6.172;2023-06-14T13:10:16;28.90;60.80
53264;DHT22;39153;52.680;6.172;2023-06-14T13:12:43;28.80;60.50
53264;DHT22;39153;52.680;6.172;2023-06-14T13:15:08;28.80;60.70
53264;DHT22;39153;52.680;6.172;2023-06-14T13:17:35;28.90;60.70
53264;DHT22;39153;52.680;6.172;2023-06-14T13:20:07;29.10;60.40
53264;DHT22;39153;52.680;6.172;2023-06-14T13:22:34;29.10;60.60
53264;DHT22;39153;52.680;6.172;2023-06-14T13:25:00;29.20;60.50
53264;DHT22;39153;52.680;6.172;2023-06-14T13:27:27;29.20;61.20
53264;DHT22;39153;52.680;6.172;2023-06-14T13:29:53;29.40;61.30
53264;DHT22;39153;52.680;6.172;2023-06-14T13:32:20;29.50;60.80
53264;DHT22;39153;52.680;6.172;2023-06-14T13:34:46;29.60;60.30
53264;DHT22;39153;52.680;6.172;2023-06-14T13:37:12;29.60;59.80
53264;DHT22;39153;52.680;6.172;2023-06-14T13:39:38;29.60;60.10
53264;DHT22;39153;52.680;6.172;2023-06-14T13:42:04;29.70;60.30
53264;DHT22;39153;52.680;6.172;2023-06-14T13:44:30;29.70;59.60
53264;DHT22;39153;52.680;6.172;2023-06-14T13:46:56;29.70;59.70
53264;DHT22;39153;52.680;6.172;2023-06-14T13:49:22;29.70;59.50
53264;DHT22;39153;52.680;6.172;2023-06-14T13:51:48;29.80;59.90
53264;DHT22;39153;52.680;6.172;2023-06-14T13:54:14;29.80;59.50
53264;DHT22;39153;52.680;6.172;2023-06-14T13:56:42;29.80;59.70
53264;DHT22;39153;52.680;6.172;2023-06-14T13:59:08;29.70;59.50
53264;DHT22;39153;52.680;6.172;2023-06-14T14:01:34;29.80;59.60
53264;DHT22;39153;52.680;6.172;2023-06-14T14:04:00;29.90;59.60
53264;DHT22;39153;52.680;6.172;2023-06-14T14:06:26;30.00;59.60
53264;DHT22;39153;52.680;6.172;2023-06-14T14:08:52;30.20;59.40
53264;DHT22;39153;52.680;6.172;2023-06-14T14:11:18;30.30;60.20
53264;DHT22;39153;52.680;6.172;2023-06-14T14:13:44;30.50;59.40
53264;DHT22;39153;52.680;6.172;2023-06-14T14:16:10;30.50;58.70
53264;DHT22;39153;52.680;6.172;2023-06-14T14:18:36;30.60;58.90
53264;DHT22;39153;52.680;6.172;2023-06-14T14:21:03;30.70;59.10
53264;DHT22;39153;52.680;6.172;2023-06-14T14:23:28;30.70;59.30
53264;DHT22;39153;52.680;6.172;2023-06-14T14:25:55;30.80;58.90
53264;DHT22;39153;52.680;6.172;2023-06-14T14:28:20;30.70;58.80
53264;DHT22;39153;52.680;6.172;2023-06-14T14:30:47;30.80;58.60
53264;DHT22;39153;52.680;6.172;2023-06-14T14:33:15;30.90;59.10
53264;DHT22;39153;52.680;6.172;2023-06-14T14:35:43;31.00;58.50
53264;DHT22;39153;52.680;6.172;2023-06-14T14:38:12;31.00;58.30
53264;DHT22;39153;52.680;6.172;2023-06-14T14:40:38;31.20;58.00
53264;DHT22;39153;52.680;6.172;2023-06-14T14:43:04;31.20;58.00
53264;DHT22;39153;52.680;6.172;2023-06-14T14:45:30;31.20;58.10
53264;DHT22;39153;52.680;6.172;2023-06-14T14:47:56;31.30;58.20
53264;DHT22;39153;52.680;6.172;2023-06-14T14:50:22;31.40;58.60
53264;DHT22;39153;52.680;6.172;2023-06-14T14:52:48;31.60;58.20
53264;DHT22;39153;52.680;6.172;2023-06-14T14:55:14;31.70;58.50
53264;DHT22;39153;52.680;6.172;2023-06-14T14:57:39;31.80;58.20
53264;DHT22;39153;52.680;6.172;2023-06-14T15:00:06;31.90;58.60
53264;DHT22;39153;52.680;6.172;2023-06-14T15:02:32;32.00;57.50
53264;DHT22;39153;52.680;6.172;2023-06-14T15:04:57;32.00;58.00
53264;DHT22;39153;52.680;6.172;2023-06-14T15:07:27;32.00;57.40
53264;DHT22;39153;52.680;6.172;2023-06-14T15:09:54;32.10;57.60
53264;DHT22;39153;52.680;6.172;2023-06-14T15:12:19;32.30;57.50
53264;DHT22;39153;52.680;6.172;2023-06-14T15:14:51;32.30;57.00
53264;DHT22;39153;52.680;6.172;2023-06-14T15:17:20;32.10;57.20
53264;DHT22;39153;52.680;6.172;2023-06-14T15:19:47;32.10;57.40
53264;DHT22;39153;52.680;6.172;2023-06-14T15:22:13;32.30;57.00
53264;DHT22;39153;52.680;6.172;2023-06-14T15:24:43;32.40;57.00
53264;DHT22;39153;52.680;6.172;2023-06-14T15:27:09;32.50;56.80
53264;DHT22;39153;52.680;6.172;2023-06-14T15:29:36;32.30;56.80
53264;DHT22;39153;52.680;6.172;2023-06-14T15:32:02;32.40;57.00
53264;DHT22;39153;52.680;6.172;2023-06-14T15:34:28;32.60;57.00
53264;DHT22;39153;52.680;6.172;2023-06-14T15:36:53;32.60;56.40
53264;DHT22;39153;52.680;6.172;2023-06-14T15:39:19;32.60;56.30
53264;DHT22;39153;52.680;6.172;2023-06-14T15:41:45;32.60;56.70
53264;DHT22;39153;52.680;6.172;2023-06-14T15:44:11;32.70;56.60